sensor_id;sensor_type;location;lat;lon;timestamp;temperature;humidity
9772;DHT22;4925;52.588;13.370;2023-03-01T00:01:18;1.50;99.90
9772;DHT22;4925;52.588;13.370;2023-03-01T00:03:45;1.50;99.90
9772;DHT22;4925;52.588;13.370;2023-03-01T00:06:10;1.50;99.90
9772;DHT22;4925;52.588;13.370;2023-03-01T00:08:36;1.50;99.90
9772;DHT22;4925;52.588;13.370;2023-03-01T00:13:44;1.50;99.90
9772;DHT22;4925;52.588;13.370;2023-03-01T00:16:13;1.60;99.90
9772;DHT22;4925;52.588;13.370;2023-03-01T00:18:39;1.60;99.90
9772;DHT22;4925;52.588;13.370;2023-03-01T00:21:05;1.50;99.90
9772;DHT22;4925;52.588;13.370;2023-03-01T00:23:31;1.50;99.90
9772;DHT22;4925;52.588;13.370;2023-03-01T00:25:58;1.60;99.90
9772;DHT22;4925;52.588;13.370;2023-03-01T00:28:24;1.50;99.90
9772;DHT22;4925;52.588;13.370;2023-03-01T00:30:50;1.50;99.90
9772;DHT22;4925;52.588;13.370;2023-03-01T00:33:16;1.50;99.90
9772;DHT22;4925;52.588;13.370;2023-03-01T00:35:41;1.40;99.90
9772;DHT22;4925;52.588;13.370;2023-03-01T00:38:07;1.40;99.90
9772;DHT22;4925;52.588;13.370;2023-03-01T00:40:34;1.40;99.90
9772;DHT22;4925;52.588;13.370;2023-03-01T00:43:01;1.40;99.90
9772;DHT22;4925;52.588;13.370;2023-03-01T00:45:27;1.30;99.90
9772;DHT22;4925;52.588;13.370;2023-03-01T00:47:53;1.30;99.90
9772;DHT22;4925;52.588;13.370;2023-03-01T00:50:19;1.30;99.90
9772;DHT22;4925;52.588;13.370;2023-03-01T00:52:45;1.30;99.90
9772;DHT22;4925;52.588;13.370;2023-03-01T00:55:11;1.30;99.90
9772;DHT22;4925;52.588;13.370;2023-03-01T00:57:37;1.20;99.90
9772;DHT22;4925;52.588;13.370;2023-03-01T01:00:05;1.20;99.90
9772;DHT22;4925;52.588;13.370;2023-03-01T01:02:34;1.10;99.90
9772;DHT22;4925;52.588;13.370;2023-03-01T01:04:59;1.20;99.90
9772;DHT22;4925;52.588;13.370;2023-03-01T01:07:25;1.10;99.90
9772;DHT22;4925;52.588;13.370;2023-03-01T01:09:51;1.10;99.90
9772;DHT22;4925;52.588;13.370;2023-03-01T01:12:17;1.00;99.90
9772;DHT22;4925;52.588;13.370;2023-03-01T01:14:42;1.00;99.90
9772;DHT22;4925;52.588;13.370;2023-03-01T01:17:09;1.00;99.90
9772;DHT22;4925;52.588;13.370;2023-03-01T01:19:35;1.00;99.90
9772;DHT22;4925;52.588;13.370;2023-03-01T01:22:00;1.00;99.90
9772;DHT22;4925;52.588;13.370;2023-03-01T01:24:26;1.00;99.90
9772;DHT22;4925;52.588;13.370;2023-03-01T01:26:52;1.00;99.90
9772;DHT22;4925;52.588;13.370;2023-03-01T01:29:17;1.00;99.90
9772;DHT22;4925;52.588;13.370;2023-03-01T01:31:44;1.00;99.90
9772;DHT22;4925;52.588;13.370;2023-03-01T01:34:15;0.90;99.90
9772;DHT22;4925;52.588;13.370;2023-03-01T01:36:41;0.90;99.90
9772;DHT22;4925;52.588;13.370;2023-03-01T01:39:06;1.00;99.90
9772;DHT22;4925;52.588;13.370;2023-03-01T01:41:32;0.90;99.90
9772;DHT22;4925;52.588;13.370;2023-03-01T01:44:25;0.90;99.90
9772;DHT22;4925;52.588;13.370;2023-03-01T01:47:33;0.80;99.90
9772;DHT22;4925;52.588;13.370;2023-03-01T01:49:54;0.80;99.90
9772;DHT22;4925;52.588;13.370;2023-03-01T01:52:27;0.80;99.90
9772;DHT22;4925;52.588;13.370;2023-03-01T01:57:39;0.80;99.90
9772;DHT22;4925;52.588;13.370;2023-03-01T02:00:12;0.70;99.90
9772;DHT22;4925;52.588;13.370;2023-03-01T02:02:38;0.70;99.90
9772;DHT22;4925;52.588;13.370;2023-03-01T02:05:12;0.60;99.90
9772;DHT22;4925;52.588;13.370;2023-03-01T02:07:40;0.60;99.90
9772;DHT22;4925;52.588;13.370;2023-03-01T02:10:07;0.60;99.90
9772;DHT22;4925;52.588;13.370;2023-03-01T02:12:34;0.70;99.90
9772;DHT22;4925;52.588;13.370;2023-03-01T02:15:01;0.70;99.90
9772;DHT22;4925;52.588;13.370;2023-03-01T02:17:26;0.60;99.90
9772;DHT22;4925;52.588;13.370;2023-03-01T02:22:44;0.60;99.90
9772;DHT22;4925;52.588;13.370;2023-03-01T02:30:29;0.40;99.90
9772;DHT22;4925;52.588;13.370;2023-03-01T02:32:57;0.30;99.90
9772;DHT22;4925;52.588;13.370;2023-03-01T02:35:30;0.30;99.90
9772;DHT22;4925;52.588;13.370;2023-03-01T02:37:57;0.30;99.90
9772;DHT22;4925;52.588;13.370;2023-03-01T02:40:30;0.30;99.90
9772;DHT22;4925;52.588;13.370;2023-03-01T02:42:58;0.30;99.90
9772;DHT22;4925;52.588;13.370;2023-03-01T02:45:25;0.30;99.90
9772;DHT22;4925;52.588;13.370;2023-03-01T02:47:57;0.30;99.90
9772;DHT22;4925;52.588;13.370;2023-03-01T02:51:00;0.30;99.90
9772;DHT22;4925;52.588;13.370;2023-03-01T02:56:21;0.30;99.90
9772;DHT22;4925;52.588;13.370;2023-03-01T02:58:47;0.30;99.90
9772;DHT22;4925;52.588;13.370;2023-03-01T03:01:17;0.30;99.90
9772;DHT22;4925;52.588;13.370;2023-03-01T03:03:43;0.30;99.90
9772;DHT22;4925;52.588;13.370;2023-03-01T03:06:09;0.30;99.90
9772;DHT22;4925;52.588;13.370;2023-03-01T03:08:35;0.20;99.90
9772;DHT22;4925;52.588;13.370;2023-03-01T03:11:01;0.20;99.90
9772;DHT22;4925;52.588;13.370;2023-03-01T03:13:27;0.30;99.90
9772;DHT22;4925;52.588;13.370;2023-03-01T03:15:55;0.20;99.90
9772;DHT22;4925;52.588;13.370;2023-03-01T03:18:21;0.20;99.90
9772;DHT22;4925;52.588;13.370;2023-03-01T03:20:48;0.20;99.90
9772;DHT22;4925;52.588;13.370;2023-03-01T03:23:19;0.20;99.90
9772;DHT22;4925;52.588;13.370;2023-03-01T03:25:47;0.20;99.90
9772;DHT22;4925;52.588;13.370;2023-03-01T03:28:13;0.20;99.90
9772;DHT22;4925;52.588;13.370;2023-03-01T03:30:40;0.30;99.90
9772;DHT22;4925;52.588;13.370;2023-03-01T03:33:06;0.20;99.90
9772;DHT22;4925;52.588;13.370;2023-03-01T03:35:38;0.20;99.90
9772;DHT22;4925;52.588;13.370;2023-03-01T03:38:06;0.30;99.90
9772;DHT22;4925;52.588;13.370;2023-03-01T03:40:35;0.30;99.90
9772;DHT22;4925;52.588;13.370;2023-03-01T03:43:03;0.30;99.90
9772;DHT22;4925;52.588;13.370;2023-03-01T03:45:29;0.30;99.90
9772;DHT22;4925;52.588;13.370;2023-03-01T03:47:55;0.20;99.90
9772;DHT22;4925;52.588;13.370;2023-03-01T03:50:20;0.20;99.90
9772;DHT22;4925;52.588;13.370;2023-03-01T03:52:46;0.20;99.90
9772;DHT22;4925;52.588;13.370;2023-03-01T03:55:12;0.20;99.90
9772;DHT22;4925;52.588;13.370;2023-03-01T03:57:42;0.20;99.90
9772;DHT22;4925;52.588;13.370;2023-03-01T04:00:11;0.10;99.90
9772;DHT22;4925;52.588;13.370;2023-03-01T04:02:41;0.10;99.90
9772;DHT22;4925;52.588;13.370;2023-03-01T04:05:09;0.00;99.90
9772;DHT22;4925;52.588;13.370;2023-03-01T04:07:35;0.00;99.90
9772;DHT22;4925;52.588;13.370;2023-03-01T04:10:06;0.00;99.90
9772;DHT22;4925;52.588;13.370;2023-03-01T04:12:33;-0.10;99.90
9772;DHT22;4925;52.588;13.370;2023-03-01T04:15:03;0.00;99.90
9772;DHT22;4925;52.588;13.370;2023-03-01T04:17:43;0.00;99.90
9772;DHT22;4925;52.588;13.370;2023-03-01T04:20:14;0.00;99.90
9772;DHT22;4925;52.588;13.370;2023-03-01T04:22:43;-0.10;99.90
9772;DHT22;4925;52.588;13.370;2023-03-01T04:25:11;-0.10;99.90
9772;DHT22;4925;52.588;13.370;2023-03-01T04:27:39;-0.10;99.90
9772;DHT22;4925;52.588;13.370;2023-03-01T04:30:05;-0.10;99.90
9772;DHT22;4925;52.588;13.370;2023-03-01T04:32:31;-0.20;99.90
9772;DHT22;4925;52.588;13.370;2023-03-01T04:34:57;-0.20;99.90
9772;DHT22;4925;52.588;13.370;2023-03-01T04:37:23;-0.20;99.90
9772;DHT22;4925;52.588;13.370;2023-03-01T04:39:49;-0.30;99.90
9772;DHT22;4925;52.588;13.370;2023-03-01T04:42:15;-0.30;99.90
9772;DHT22;4925;52.588;13.370;2023-03-01T04:44:42;-0.30;99.90
9772;DHT22;4925;52.588;13.370;2023-03-01T04:47:08;-0.30;99.90
9772;DHT22;4925;52.588;13.370;2023-03-01T04:49:34;-0.30;99.90
9772;DHT22;4925;52.588;13.370;2023-03-01T04:52:00;-0.20;99.90
9772;DHT22;4925;52.588;13.370;2023-03-01T04:54:33;-0.20;99.90
9772;DHT22;4925;52.588;13.370;2023-03-01T04:57:00;-0.20;99.90
9772;DHT22;4925;52.588;13.370;2023-03-01T04:59:26;-0.30;99.90
9772;DHT22;4925;52.588;13.370;2023-03-01T05:01:53;-0.30;99.90
9772;DHT22;4925;52.588;13.370;2023-03-01T05:04:24;-0.30;99.90
9772;DHT22;4925;52.588;13.370;2023-03-01T05:06:50;-0.20;99.90
9772;DHT22;4925;52.588;13.370;2023-03-01T05:09:16;-0.20;99.90
9772;DHT22;4925;52.588;13.370;2023-03-01T05:11:42;-0.20;99.90
9772;DHT22;4925;52.588;13.370;2023-03-01T05:14:09;-0.30;99.90
9772;DHT22;4925;52.588;13.370;2023-03-01T05:16:35;-0.30;99.90
9772;DHT22;4925;52.588;13.370;2023-03-01T05:19:03;-0.20;99.90
9772;DHT22;4925;52.588;13.370;2023-03-01T05:21:37;-0.20;99.90
9772;DHT22;4925;52.588;13.370;2023-03-01T05:24:23;-0.20;99.90
9772;DHT22;4925;52.588;13.370;2023-03-01T05:26:49;-0.30;99.90
9772;DHT22;4925;52.588;13.370;2023-03-01T05:29:18;-0.30;99.90
9772;DHT22;4925;52.588;13.370;2023-03-01T05:31:44;-0.40;99.90
9772;DHT22;4925;52.588;13.370;2023-03-01T05:34:10;-0.40;99.90
9772;DHT22;4925;52.588;13.370;2023-03-01T05:36:38;-0.40;99.90
9772;DHT22;4925;52.588;13.370;2023-03-01T05:39:03;-0.20;99.90
9772;DHT22;4925;52.588;13.370;2023-03-01T05:41:30;0.60;99.90
9772;DHT22;4925;52.588;13.370;2023-03-01T05:43:55;1.30;99.90
9772;DHT22;4925;52.588;13.370;2023-03-01T05:46:21;1.80;99.90
9772;DHT22;4925;52.588;13.370;2023-03-01T05:48:50;2.10;99.90
9772;DHT22;4925;52.588;13.370;2023-03-01T05:51:15;2.20;99.90
9772;DHT22;4925;52.588;13.370;2023-03-01T05:53:41;2.10;99.90
9772;DHT22;4925;52.588;13.370;2023-03-01T05:56:07;1.90;99.90
9772;DHT22;4925;52.588;13.370;2023-03-01T05:58:33;1.60;99.90
9772;DHT22;4925;52.588;13.370;2023-03-01T06:00:58;1.40;99.90
9772;DHT22;4925;52.588;13.370;2023-03-01T06:03:24;1.40;99.90
9772;DHT22;4925;52.588;13.370;2023-03-01T06:05:56;1.10;99.90
9772;DHT22;4925;52.588;13.370;2023-03-01T06:08:21;0.90;99.90
9772;DHT22;4925;52.588;13.370;2023-03-01T06:10:47;0.80;99.90
9772;DHT22;4925;52.588;13.370;2023-03-01T06:13:13;0.80;99.90
9772;DHT22;4925;52.588;13.370;2023-03-01T06:15:39;0.60;99.90
9772;DHT22;4925;52.588;13.370;2023-03-01T06:18:04;0.60;99.90
9772;DHT22;4925;52.588;13.370;2023-03-01T06:20:30;0.60;99.90
9772;DHT22;4925;52.588;13.370;2023-03-01T06:22:56;0.50;99.90
9772;DHT22;4925;52.588;13.370;2023-03-01T06:25:23;0.40;99.90
9772;DHT22;4925;52.588;13.370;2023-03-01T06:27:50;0.30;99.90
9772;DHT22;4925;52.588;13.370;2023-03-01T06:30:18;0.30;99.90
9772;DHT22;4925;52.588;13.370;2023-03-01T06:32:44;0.30;99.90
9772;DHT22;4925;52.588;13.370;2023-03-01T06:35:11;0.40;99.90
9772;DHT22;4925;52.588;13.370;2023-03-01T06:37:37;0.50;99.90
9772;DHT22;4925;52.588;13.370;2023-03-01T06:40:04;0.50;99.90
9772;DHT22;4925;52.588;13.370;2023-03-01T06:42:38;0.60;99.90
9772;DHT22;4925;52.588;13.370;2023-03-01T06:45:05;0.60;99.90
9772;DHT22;4925;52.588;13.370;2023-03-01T06:47:32;0.60;99.90
9772;DHT22;4925;52.588;13.370;2023-03-01T06:49:59;0.70;99.90
9772;DHT22;4925;52.588;13.370;2023-03-01T06:52:25;0.80;99.90
9772;DHT22;4925;52.588;13.370;2023-03-01T06:54:51;0.90;99.90
9772;DHT22;4925;52.588;13.370;2023-03-01T06:57:16;0.90;99.90
9772;DHT22;4925;52.588;13.370;2023-03-01T06:59:42;1.00;99.90
9772;DHT22;4925;52.588;13.370;2023-03-01T07:02:11;1.10;99.90
9772;DHT22;4925;52.588;13.370;2023-03-01T07:04:37;1.10;99.90
9772;DHT22;4925;52.588;13.370;2023-03-01T07:07:03;1.10;99.90
9772;DHT22;4925;52.588;13.370;2023-03-01T07:09:29;1.30;99.90
9772;DHT22;4925;52.588;13.370;2023-03-01T07:11:55;1.30;99.90
9772;DHT22;4925;52.588;13.370;2023-03-01T07:14:21;1.40;99.90
9772;DHT22;4925;52.588;13.370;2023-03-01T07:16:49;1.50;99.90
9772;DHT22;4925;52.588;13.370;2023-03-01T07:19:15;1.60;99.90
9772;DHT22;4925;52.588;13.370;2023-03-01T07:21:41;1.70;99.90
9772;DHT22;4925;52.588;13.370;2023-03-01T07:24:08;1.80;99.90
9772;DHT22;4925;52.588;13.370;2023-03-01T07:26:34;1.80;99.90
9772;DHT22;4925;52.588;13.370;2023-03-01T07:29:00;1.90;99.90
9772;DHT22;4925;52.588;13.370;2023-03-01T07:31:26;1.90;99.90
9772;DHT22;4925;52.588;13.370;2023-03-01T07:33:55;2.00;99.90
9772;DHT22;4925;52.588;13.370;2023-03-01T07:36:21;2.00;99.90
9772;DHT22;4925;52.588;13.370;2023-03-01T07:38:47;2.10;99.90
9772;DHT22;4925;52.588;13.370;2023-03-01T07:41:13;2.20;99.90
9772;DHT22;4925;52.588;13.370;2023-03-01T07:43:38;2.20;99.90
9772;DHT22;4925;52.588;13.370;2023-03-01T07:46:04;2.40;99.90
9772;DHT22;4925;52.588;13.370;2023-03-01T07:48:31;2.50;99.90
9772;DHT22;4925;52.588;13.370;2023-03-01T07:51:01;2.60;99.90
9772;DHT22;4925;52.588;13.370;2023-03-01T07:53:27;2.80;99.90
9772;DHT22;4925;52.588;13.370;2023-03-01T07:56:01;2.90;99.90
9772;DHT22;4925;52.588;13.370;2023-03-01T07:58:27;3.10;99.90
9772;DHT22;4925;52.588;13.370;2023-03-01T08:00:53;3.30;99.90
9772;DHT22;4925;52.588;13.370;2023-03-01T08:03:18;3.40;99.90
9772;DHT22;4925;52.588;13.370;2023-03-01T08:05:44;3.60;99.90
9772;DHT22;4925;52.588;13.370;2023-03-01T08:08:10;3.70;99.90
9772;DHT22;4925;52.588;13.370;2023-03-01T08:10:36;3.80;99.90
9772;DHT22;4925;52.588;13.370;2023-03-01T08:13:02;3.90;99.90
9772;DHT22;4925;52.588;13.370;2023-03-01T08:15:27;4.00;99.90
9772;DHT22;4925;52.588;13.370;2023-03-01T08:17:53;4.20;99.90
9772;DHT22;4925;52.588;13.370;2023-03-01T08:20:19;4.30;99.90
9772;DHT22;4925;52.588;13.370;2023-03-01T08:22:44;4.40;99.90
9772;DHT22;4925;52.588;13.370;2023-03-01T08:25:10;4.50;99.90
9772;DHT22;4925;52.588;13.370;2023-03-01T08:27:36;4.40;99.90
9772;DHT22;4925;52.588;13.370;2023-03-01T08:30:01;4.50;99.90
9772;DHT22;4925;52.588;13.370;2023-03-01T08:32:27;4.60;99.90
9772;DHT22;4925;52.588;13.370;2023-03-01T08:34:53;4.60;99.90
9772;DHT22;4925;52.588;13.370;2023-03-01T08:37:18;4.60;99.90
9772;DHT22;4925;52.588;13.370;2023-03-01T08:39:44;4.70;99.90
9772;DHT22;4925;52.588;13.370;2023-03-01T08:42:09;4.80;99.90
9772;DHT22;4925;52.588;13.370;2023-03-01T08:44:35;5.00;99.90
9772;DHT22;4925;52.588;13.370;2023-03-01T08:47:01;4.90;99.90
9772;DHT22;4925;52.588;13.370;2023-03-01T08:49:27;5.10;99.90
9772;DHT22;4925;52.588;13.370;2023-03-01T08:51:53;5.40;99.90
9772;DHT22;4925;52.588;13.370;2023-03-01T08:54:21;5.50;99.90
9772;DHT22;4925;52.588;13.370;2023-03-01T08:56:47;5.60;99.90
9772;DHT22;4925;52.588;13.370;2023-03-01T08:59:17;5.60;98.50
9772;DHT22;4925;52.588;13.370;2023-03-01T09:01:43;5.60;98.30
9772;DHT22;4925;52.588;13.370;2023-03-01T09:04:13;5.80;98.30
9772;DHT22;4925;52.588;13.370;2023-03-01T09:06:40;5.70;97.20
9772;DHT22;4925;52.588;13.370;2023-03-01T09:09:06;5.80;97.30
9772;DHT22;4925;52.588;13.370;2023-03-01T09:11:33;6.00;97.30
9772;DHT22;4925;52.588;13.370;2023-03-01T09:13:58;6.10;97.40
9772;DHT22;4925;52.588;13.370;2023-03-01T09:16:24;6.20;97.20
9772;DHT22;4925;52.588;13.370;2023-03-01T09:18:54;6.10;96.60
9772;DHT22;4925;52.588;13.370;2023-03-01T09:21:22;6.30;96.50
9772;DHT22;4925;52.588;13.370;2023-03-01T09:23:48;6.50;97.80
9772;DHT22;4925;52.588;13.370;2023-03-01T09:26:17;6.60;95.40
9772;DHT22;4925;52.588;13.370;2023-03-01T09:28:45;6.70;94.40
9772;DHT22;4925;52.588;13.370;2023-03-01T09:31:12;6.80;94.10
9772;DHT22;4925;52.588;13.370;2023-03-01T09:33:41;6.80;94.40
9772;DHT22;4925;52.588;13.370;2023-03-01T09:36:13;6.80;94.50
9772;DHT22;4925;52.588;13.370;2023-03-01T09:38:39;6.80;94.00
9772;DHT22;4925;52.588;13.370;2023-03-01T09:41:36;6.90;93.80
9772;DHT22;4925;52.588;13.370;2023-03-01T09:44:13;7.00;93.30
9772;DHT22;4925;52.588;13.370;2023-03-01T09:46:43;7.10;93.10
9772;DHT22;4925;52.588;13.370;2023-03-01T09:49:23;7.20;92.60
9772;DHT22;4925;52.588;13.370;2023-03-01T09:52:23;7.20;91.90
9772;DHT22;4925;52.588;13.370;2023-03-01T09:54:54;7.20;90.80
9772;DHT22;4925;52.588;13.370;2023-03-01T10:03:16;7.20;88.90
9772;DHT22;4925;52.588;13.370;2023-03-01T10:06:20;7.20;89.70
9772;DHT22;4925;52.588;13.370;2023-03-01T10:11:35;7.60;89.60
9772;DHT22;4925;52.588;13.370;2023-03-01T10:19:44;7.80;87.30
9772;DHT22;4925;52.588;13.370;2023-03-01T10:22:28;7.90;85.70
9772;DHT22;4925;52.588;13.370;2023-03-01T10:24:56;7.90;85.30
9772;DHT22;4925;52.588;13.370;2023-03-01T10:30:05;8.00;82.10
9772;DHT22;4925;52.588;13.370;2023-03-01T10:32:32;8.20;83.10
9772;DHT22;4925;52.588;13.370;2023-03-01T10:34:58;8.10;81.80
9772;DHT22;4925;52.588;13.370;2023-03-01T10:37:24;8.10;80.70
9772;DHT22;4925;52.588;13.370;2023-03-01T10:40:09;8.20;81.20
9772;DHT22;4925;52.588;13.370;2023-03-01T10:42:46;8.10;79.50
9772;DHT22;4925;52.588;13.370;2023-03-01T10:45:34;8.20;80.90
9772;DHT22;4925;52.588;13.370;2023-03-01T10:48:24;8.20;80.70
9772;DHT22;4925;52.588;13.370;2023-03-01T10:51:15;8.50;80.80
9772;DHT22;4925;52.588;13.370;2023-03-01T10:53:47;8.60;79.30
9772;DHT22;4925;52.588;13.370;2023-03-01T10:56:14;8.50;76.90
9772;DHT22;4925;52.588;13.370;2023-03-01T10:59:01;8.80;76.40
9772;DHT22;4925;52.588;13.370;2023-03-01T11:01:32;8.80;73.40
9772;DHT22;4925;52.588;13.370;2023-03-01T11:06:35;9.10;71.80
9772;DHT22;4925;52.588;13.370;2023-03-01T11:09:21;9.30;71.80
9772;DHT22;4925;52.588;13.370;2023-03-01T11:11:59;9.50;67.20
9772;DHT22;4925;52.588;13.370;2023-03-01T11:14:37;9.60;63.00
9772;DHT22;4925;52.588;13.370;2023-03-01T11:17:15;9.90;63.40
9772;DHT22;4925;52.588;13.370;2023-03-01T11:19:44;9.70;60.10
9772;DHT22;4925;52.588;13.370;2023-03-01T11:22:24;9.90;59.90
9772;DHT22;4925;52.588;13.370;2023-03-01T11:24:52;9.60;58.70
9772;DHT22;4925;52.588;13.370;2023-03-01T11:27:24;9.80;59.00
9772;DHT22;4925;52.588;13.370;2023-03-01T11:32:45;10.40;56.60
9772;DHT22;4925;52.588;13.370;2023-03-01T11:35:31;10.50;56.70
9772;DHT22;4925;52.588;13.370;2023-03-01T11:40:35;11.10;55.30
9772;DHT22;4925;52.588;13.370;2023-03-01T11:43:16;11.40;53.60
9772;DHT22;4925;52.588;13.370;2023-03-01T11:46:12;11.60;51.30
9772;DHT22;4925;52.588;13.370;2023-03-01T11:48:50;11.80;48.50
9772;DHT22;4925;52.588;13.370;2023-03-01T12:00:17;12.30;42.30
9772;DHT22;4925;52.588;13.370;2023-03-01T12:09:00;13.00;40.30
9772;DHT22;4925;52.588;13.370;2023-03-01T12:28:16;13.60;34.30
9772;DHT22;4925;52.588;13.370;2023-03-01T12:36:31;13.30;34.70
9772;DHT22;4925;52.588;13.370;2023-03-01T12:45:21;13.30;35.80
9772;DHT22;4925;52.588;13.370;2023-03-01T12:50:48;13.90;36.50
9772;DHT22;4925;52.588;13.370;2023-03-01T12:53:31;14.30;35.40
9772;DHT22;4925;52.588;13.370;2023-03-01T12:56:01;14.80;34.50
9772;DHT22;4925;52.588;13.370;2023-03-01T13:17:53;15.90;29.10
9772;DHT22;4925;52.588;13.370;2023-03-01T13:20:23;16.10;28.80
9772;DHT22;4925;52.588;13.370;2023-03-01T13:23:02;16.00;28.30
9772;DHT22;4925;52.588;13.370;2023-03-01T13:25:28;15.70;28.20
9772;DHT22;4925;52.588;13.370;2023-03-01T13:30:58;15.60;29.00
9772;DHT22;4925;52.588;13.370;2023-03-01T13:35:56;15.60;28.50
9772;DHT22;4925;52.588;13.370;2023-03-01T13:38:48;15.60;28.00
9772;DHT22;4925;52.588;13.370;2023-03-01T13:46:47;15.70;26.90
9772;DHT22;4925;52.588;13.370;2023-03-01T13:49:20;15.50;26.30
9772;DHT22;4925;52.588;13.370;2023-03-01T13:51:47;15.20;26.90
9772;DHT22;4925;52.588;13.370;2023-03-01T13:54:15;15.10;27.10
9772;DHT22;4925;52.588;13.370;2023-03-01T13:56:42;15.00;27.60
9772;DHT22;4925;52.588;13.370;2023-03-01T13:59:18;15.20;27.50
9772;DHT22;4925;52.588;13.370;2023-03-01T14:01:52;15.30;28.00
9772;DHT22;4925;52.588;13.370;2023-03-01T14:04:23;15.30;28.00
9772;DHT22;4925;52.588;13.370;2023-03-01T14:06:51;15.40;28.60
9772;DHT22;4925;52.588;13.370;2023-03-01T14:09:21;15.50;28.50
9772;DHT22;4925;52.588;13.370;2023-03-01T14:14:40;15.20;29.00
9772;DHT22;4925;52.588;13.370;2023-03-01T14:20:07;15.20;29.10
9772;DHT22;4925;52.588;13.370;2023-03-01T14:22:35;15.20;29.30
9772;DHT22;4925;52.588;13.370;2023-03-01T14:25:06;15.40;29.10
9772;DHT22;4925;52.588;13.370;2023-03-01T14:27:41;15.50;28.90
9772;DHT22;4925;52.588;13.370;2023-03-01T14:30:44;15.70;28.90
9772;DHT22;4925;52.588;13.370;2023-03-01T14:33:23;15.90;28.10
9772;DHT22;4925;52.588;13.370;2023-03-01T14:36:09;16.10;28.10
9772;DHT22;4925;52.588;13.370;2023-03-01T14:38:46;16.20;27.90
9772;DHT22;4925;52.588;13.370;2023-03-01T14:41:18;16.20;27.50
9772;DHT22;4925;52.588;13.370;2023-03-01T14:43:49;16.20;27.10
9772;DHT22;4925;52.588;13.370;2023-03-01T14:46:29;16.40;27.60
9772;DHT22;4925;52.588;13.370;2023-03-01T14:49:03;16.60;27.10
9772;DHT22;4925;52.588;13.370;2023-03-01T14:51:30;16.90;27.00
9772;DHT22;4925;52.588;13.370;2023-03-01T14:53:56;16.90;26.90
9772;DHT22;4925;52.588;13.370;2023-03-01T14:56:22;16.90;27.00
9772;DHT22;4925;52.588;13.370;2023-03-01T14:58:52;16.90;27.10
9772;DHT22;4925;52.588;13.370;2023-03-01T15:01:18;17.00;27.10
9772;DHT22;4925;52.588;13.370;2023-03-01T15:03:49;17.10;27.10
9772;DHT22;4925;52.588;13.370;2023-03-01T15:06:18;17.10;26.80
9772;DHT22;4925;52.588;13.370;2023-03-01T15:08:47;17.20;27.00
9772;DHT22;4925;52.588;13.370;2023-03-01T15:13:40;16.90;26.50
9772;DHT22;4925;52.588;13.370;2023-03-01T15:16:30;16.60;26.80
9772;DHT22;4925;52.588;13.370;2023-03-01T15:19:06;16.50;26.90
9772;DHT22;4925;52.588;13.370;2023-03-01T15:21:38;16.30;27.70
9772;DHT22;4925;52.588;13.370;2023-03-01T15:26:42;16.30;28.60
9772;DHT22;4925;52.588;13.370;2023-03-01T15:29:17;16.30;28.50
9772;DHT22;4925;52.588;13.370;2023-03-01T15:31:54;16.30;28.60
9772;DHT22;4925;52.588;13.370;2023-03-01T15:34:29;16.30;28.80
9772;DHT22;4925;52.588;13.370;2023-03-01T15:36:57;16.40;28.80
9772;DHT22;4925;52.588;13.370;2023-03-01T15:39:39;16.20;28.80
9772;DHT22;4925;52.588;13.370;2023-03-01T15:42:08;15.90;29.40
9772;DHT22;4925;52.588;13.370;2023-03-01T15:44:36;15.70;30.00
9772;DHT22;4925;52.588;13.370;2023-03-01T15:47:08;15.70;30.10
9772;DHT22;4925;52.588;13.370;2023-03-01T15:49:46;15.60;30.00
9772;DHT22;4925;52.588;13.370;2023-03-01T15:52:35;15.50;30.00
9772;DHT22;4925;52.588;13.370;2023-03-01T15:55:14;15.20;30.70
9772;DHT22;4925;52.588;13.370;2023-03-01T15:57:40;15.00;32.00
9772;DHT22;4925;52.588;13.370;2023-03-01T16:00:09;14.80;32.10
9772;DHT22;4925;52.588;13.370;2023-03-01T16:02:40;14.60;32.80
9772;DHT22;4925;52.588;13.370;2023-03-01T16:05:28;14.40;33.00
9772;DHT22;4925;52.588;13.370;2023-03-01T16:07:53;14.30;33.80
9772;DHT22;4925;52.588;13.370;2023-03-01T16:10:19;14.20;34.30
9772;DHT22;4925;52.588;13.370;2023-03-01T16:12:45;14.00;34.30
9772;DHT22;4925;52.588;13.370;2023-03-01T16:15:17;13.80;34.80
9772;DHT22;4925;52.588;13.370;2023-03-01T16:17:43;13.70;35.30
9772;DHT22;4925;52.588;13.370;2023-03-01T16:20:10;13.60;66.10
9772;DHT22;4925;52.588;13.370;2023-03-01T16:22:35;13.50;53.10
9772;DHT22;4925;52.588;13.370;2023-03-01T16:25:01;13.40;44.80
9772;DHT22;4925;52.588;13.370;2023-03-01T16:27:29;13.20;43.60
9772;DHT22;4925;52.588;13.370;2023-03-01T16:29:54;13.10;82.60
9772;DHT22;4925;52.588;13.370;2023-03-01T16:32:20;13.10;65.60
9772;DHT22;4925;52.588;13.370;2023-03-01T16:34:46;13.00;52.60
9772;DHT22;4925;52.588;13.370;2023-03-01T16:37:14;12.80;50.70
9772;DHT22;4925;52.588;13.370;2023-03-01T16:39:40;12.60;53.80
9772;DHT22;4925;52.588;13.370;2023-03-01T16:42:06;12.50;62.00
9772;DHT22;4925;52.588;13.370;2023-03-01T16:44:32;12.40;57.90
9772;DHT22;4925;52.588;13.370;2023-03-01T16:46:57;12.30;53.90
9772;DHT22;4925;52.588;13.370;2023-03-01T16:49:23;12.10;53.00
9772;DHT22;4925;52.588;13.370;2023-03-01T16:51:49;12.00;52.60
9772;DHT22;4925;52.588;13.370;2023-03-01T16:54:14;11.80;52.40
9772;DHT22;4925;52.588;13.370;2023-03-01T16:56:40;11.60;52.40
9772;DHT22;4925;52.588;13.370;2023-03-01T16:59:06;11.50;52.80
9772;DHT22;4925;52.588;13.370;2023-03-01T17:01:32;11.30;53.40
9772;DHT22;4925;52.588;13.370;2023-03-01T17:04:03;11.10;53.90
9772;DHT22;4925;52.588;13.370;2023-03-01T17:06:29;11.00;54.60
9772;DHT22;4925;52.588;13.370;2023-03-01T17:08:54;10.90;55.50
9772;DHT22;4925;52.588;13.370;2023-03-01T17:11:22;10.80;56.00
9772;DHT22;4925;52.588;13.370;2023-03-01T17:13:47;10.70;56.30
9772;DHT22;4925;52.588;13.370;2023-03-01T17:16:16;10.50;56.70
9772;DHT22;4925;52.588;13.370;2023-03-01T17:18:42;10.40;57.20
9772;DHT22;4925;52.588;13.370;2023-03-01T17:21:09;10.30;58.90
9772;DHT22;4925;52.588;13.370;2023-03-01T17:23:37;10.10;60.00
9772;DHT22;4925;52.588;13.370;2023-03-01T17:26:03;10.00;60.50
9772;DHT22;4925;52.588;13.370;2023-03-01T17:28:31;9.90;62.40
9772;DHT22;4925;52.588;13.370;2023-03-01T17:30:59;9.80;63.10
9772;DHT22;4925;52.588;13.370;2023-03-01T17:33:26;9.70;64.20
9772;DHT22;4925;52.588;13.370;2023-03-01T17:35:51;9.60;65.00
9772;DHT22;4925;52.588;13.370;2023-03-01T17:38:17;9.50;65.60
9772;DHT22;4925;52.588;13.370;2023-03-01T17:40:44;9.30;66.20
9772;DHT22;4925;52.588;13.370;2023-03-01T17:43:14;9.30;67.50
9772;DHT22;4925;52.588;13.370;2023-03-01T17:45:40;9.20;73.30
9772;DHT22;4925;52.588;13.370;2023-03-01T17:48:09;9.20;94.70
9772;DHT22;4925;52.588;13.370;2023-03-01T17:50:37;9.30;96.30
9772;DHT22;4925;52.588;13.370;2023-03-01T17:53:03;9.20;93.80
9772;DHT22;4925;52.588;13.370;2023-03-01T17:55:36;9.10;92.50
9772;DHT22;4925;52.588;13.370;2023-03-01T17:58:03;9.00;91.20
9772;DHT22;4925;52.588;13.370;2023-03-01T18:00:29;8.90;90.00
9772;DHT22;4925;52.588;13.370;2023-03-01T18:02:55;8.80;89.40
9772;DHT22;4925;52.588;13.370;2023-03-01T18:05:21;8.70;89.30
9772;DHT22;4925;52.588;13.370;2023-03-01T18:07:47;8.60;89.80
9772;DHT22;4925;52.588;13.370;2023-03-01T18:10:13;8.50;90.10
9772;DHT22;4925;52.588;13.370;2023-03-01T18:12:38;8.50;94.40
9772;DHT22;4925;52.588;13.370;2023-03-01T18:15:05;8.50;98.90
9772;DHT22;4925;52.588;13.370;2023-03-01T18:17:31;8.50;99.90
9772;DHT22;4925;52.588;13.370;2023-03-01T18:19:57;8.60;99.90